Time;durP1;ratioP1;P1;durP2;ratioP2;P2;SDS_P1;SDS_P2;PMS_P1;PMS_P2;Temp;Humidity;BMP_temperature;BMP_pressure;BME280_temperature;BME280_humidity;BME280_pressure;Samples;Min_cycle;Max_cycle;Signal;HPM_P1;HPM_P2
2022/03/18 00:00:43;;;;;;;8.10;6.80;;;;;;;5.30;63.93;96053.59;5047387;28;20179;-78
2022/03/18 00:03:09;;;;;;;8.40;7.43;;;;;;;5.46;63.78;96051.34;5052400;28;20246;-77
2022/03/18 00:05:36;;;;;;;8.70;7.40;;;;;;;5.27;63.51;96055.50;5039242;28;20175;-77
2022/03/18 00:08:02;;;;;;;8.97;8.10;;;;;;;5.48;63.15;96052.06;5050397;28;20167;-77
2022/03/18 00:10:29;;;;;;;7.50;6.80;;;;;;;5.52;62.69;96057.81;5049663;28;20501;-77
2022/03/18 00:12:54;;;;;;;12.93;8.73;;;;;;;5.00;63.73;96053.38;5050130;28;20450;-77
2022/03/18 00:15:23;;;;;;;10.27;8.37;;;;;;;4.89;64.70;96064.63;5050097;28;20426;-77
2022/03/18 00:17:49;;;;;;;10.97;9.83;;;;;;;5.70;61.94;96063.25;5049838;28;20221;-77
2022/03/18 00:20:14;;;;;;;8.73;7.90;;;;;;;5.90;60.90;96059.81;5046797;28;20445;-77
2022/03/18 00:22:42;;;;;;;8.43;7.60;;;;;;;5.71;61.50;96059.69;5051703;28;20413;-77
2022/03/18 00:25:09;;;;;;;10.07;9.20;;;;;;;5.68;61.64;96063.38;5055685;28;20186;-77
2022/03/18 00:27:35;;;;;;;9.97;8.97;;;;;;;5.66;61.76;96068.69;5066695;28;20490;-77
2022/03/18 00:30:02;;;;;;;10.20;8.60;;;;;;;5.74;62.38;96072.44;5049956;28;20424;-77
2022/03/18 00:32:27;;;;;;;10.23;9.33;;;;;;;5.27;62.76;96076.25;5031886;28;20441;-77
2022/03/18 00:34:53;;;;;;;10.40;9.40;;;;;;;5.53;62.16;96075.06;5045257;28;20534;-77
2022/03/18 00:37:19;;;;;;;9.80;8.87;;;;;;;5.76;61.24;96073.13;5060062;28;20202;-77
2022/03/18 00:39:44;;;;;;;9.30;8.40;;;;;;;5.64;61.71;96078.41;5044717;28;20182;-76
2022/03/18 00:42:11;;;;;;;12.77;8.10;;;;;;;5.48;62.22;96078.84;5050967;28;20238;-77
2022/03/18 00:44:37;;;;;;;11.53;10.33;;;;;;;4.96;63.10;96085.69;5064439;28;20179;-76
2022/03/18 00:47:02;;;;;;;12.90;9.30;;;;;;;5.35;62.14;96080.81;5031689;28;20791;-76
2022/03/18 00:52:14;;;;;;;11.53;10.37;;;;;;;4.97;62.50;96076.13;5049203;28;20429;-76
2022/03/18 00:54:43;;;;;;;10.87;9.73;;;;;;;5.26;61.77;96084.97;5049078;28;20465;-76
2022/03/18 00:57:09;;;;;;;10.63;9.60;;;;;;;5.05;62.67;96084.16;5049285;28;20414;-76
2022/03/18 00:59:35;;;;;;;10.77;8.90;;;;;;;5.08;62.22;96091.66;5049177;28;20171;-76
2022/03/18 01:02:02;;;;;;;11.60;9.30;;;;;;;4.90;61.66;96096.56;5048836;28;20436;-76
2022/03/18 01:04:31;;;;;;;11.47;10.27;;;;;;;4.44;63.37;96098.44;5048757;28;20414;-77
2022/03/18 01:06:57;;;;;;;11.87;9.63;;;;;;;4.94;62.32;96107.53;5048818;28;20422;-76
2022/03/18 01:09:25;;;;;;;9.87;7.70;;;;;;;4.94;61.94;96099.75;5030832;28;20474;-76
2022/03/18 01:11:52;;;;;;;12.77;10.83;;;;;;;4.62;62.78;96103.13;5028409;28;20402;-76
2022/03/18 01:14:18;;;;;;;11.03;7.87;;;;;;;4.62;62.52;96097.94;5048550;28;20507;-76
2022/03/18 01:16:44;;;;;;;12.73;8.80;;;;;;;4.96;62.26;96100.44;5050121;28;20428;-76
2022/03/18 01:19:10;;;;;;;11.90;9.53;;;;;;;4.99;61.92;96103.63;5056940;28;20992;-76
2022/03/18 01:21:37;;;;;;;12.77;10.00;;;;;;;4.64;62.78;96099.47;5048897;28;20195;-77
2022/03/18 01:24:03;;;;;;;11.37;10.20;;;;;;;5.01;62.03;96099.13;5044863;28;20426;-76
2022/03/18 01:26:29;;;;;;;13.03;10.83;;;;;;;5.21;61.81;96099.28;5050402;28;20183;-77
2022/03/18 01:28:56;;;;;;;12.60;11.27;;;;;;;5.24;62.08;96096.44;5049302;28;20429;-76
2022/03/18 01:31:22;;;;;;;13.40;11.13;;;;;;;5.38;60.90;96100.50;5030859;28;20453;-76
2022/03/18 01:33:48;;;;;;;10.67;9.57;;;;;;;5.10;61.65;96097.53;5048593;28;20519;-76
2022/03/18 01:36:13;;;;;;;15.73;11.10;;;;;;;5.49;60.56;96100.44;5045682;28;20190;-76
2022/03/18 01:38:39;;;;;;;10.30;8.97;;;;;;;5.42;60.66;96097.50;5030598;28;20171;-76
2022/03/18 01:41:04;;;;;;;10.53;9.50;;;;;;;5.15;61.28;96092.81;5048447;28;20206;-76
2022/03/18 01:43:47;;;;;;;13.50;10.50;;;;;;;5.07;62.27;96092.63;5048462;28;20160;-76
2022/03/18 01:46:14;;;;;;;13.13;11.70;;;;;;;5.08;61.88;96094.25;5027665;28;20171;-76
2022/03/18 01:48:41;;;;;;;14.33;11.00;;;;;;;4.87;62.90;96097.63;5030774;28;20426;-76
2022/03/18 01:51:07;;;;;;;14.83;13.27;;;;;;;5.34;62.03;96101.72;5048168;28;21011;-76
2022/03/18 01:53:38;;;;;;;17.10;11.57;;;;;;;5.35;61.03;96095.56;5045482;28;20481;-76
2022/03/18 01:56:05;;;;;;;13.50;11.37;;;;;;;4.99;60.77;96095.00;5048101;28;20411;-76
2022/03/18 01:58:31;;;;;;;14.23;12.27;;;;;;;5.01;60.66;96093.94;5042709;28;20410;-76
2022/03/18 02:00:57;;;;;;;11.97;10.57;;;;;;;5.28;60.09;96100.44;5061418;28;20435;-76
2022/03/18 02:03:22;;;;;;;14.00;11.57;;;;;;;5.25;59.59;96104.13;5044356;28;20172;-77
2022/03/18 02:05:48;;;;;;;16.47;10.40;;;;;;;4.55;58.58;96114.91;5043648;28;20440;-77
2022/03/18 02:08:17;;;;;;;11.53;10.33;;;;;;;5.24;58.15;96115.44;5047563;28;20186;-76
2022/03/18 02:10:43;;;;;;;11.90;10.70;;;;;;;5.11;57.89;96108.78;5048129;28;20449;-76
2022/03/18 02:13:09;;;;;;;13.50;10.20;;;;;;;5.06;58.23;96102.16;5065642;28;20480;-76
2022/03/18 02:15:34;;;;;;;11.77;9.67;;;;;;;5.03;58.14;96101.59;5037071;28;20521;-76
2022/03/18 02:18:00;;;;;;;12.77;9.37;;;;;;;5.24;57.12;96094.66;5038855;28;20191;-76
2022/03/18 02:20:25;;;;;;;15.23;10.33;;;;;;;4.77;58.80;96101.91;5061200;28;20182;-76
2022/03/18 02:22:51;;;;;;;12.90;9.87;;;;;;;4.97;58.95;96105.53;5060669;28;20281;-76
2022/03/18 02:25:17;;;;;;;13.70;9.83;;;;;;;5.34;57.90;96104.31;5047525;28;20187;-76
2022/03/18 02:28:14;;;;;;;14.63;11.10;;;;;;;4.89;59.04;96108.72;5047633;28;20426;-76
2022/03/18 02:30:40;;;;;;;15.20;10.40;;;;;;;4.75;60.27;96101.22;4997346;28;20199;-76
2022/03/18 02:33:05;;;;;;;9.60;8.20;;;;;;;4.44;62.23;96110.56;5050958;28;20238;-76
2022/03/18 02:35:32;;;;;;;14.53;11.87;;;;;;;4.73;61.30;96116.06;5048858;28;20685;-76
2022/03/18 02:37:58;;;;;;;13.10;10.73;;;;;;;4.93;60.83;96122.25;5054784;28;20220;-76
2022/03/18 02:40:27;;;;;;;11.30;10.00;;;;;;;4.84;61.29;96128.19;5049419;28;20421;-76
2022/03/18 02:42:53;;;;;;;13.70;10.00;;;;;;;4.74;61.56;96122.06;5036393;28;20425;-76
2022/03/18 02:45:19;;;;;;;16.00;11.73;;;;;;;5.01;61.13;96132.03;5056893;28;20433;-76
2022/03/18 02:47:44;;;;;;;14.50;12.47;;;;;;;4.98;61.25;96127.09;5047246;28;20183;-76
2022/03/18 02:50:10;;;;;;;16.27;11.20;;;;;;;4.28;62.12;96139.44;5047350;28;20469;-76
2022/03/18 02:52:35;;;;;;;15.73;11.90;;;;;;;4.65;62.59;96134.81;5046983;28;20179;-76
2022/03/18 02:55:01;;;;;;;14.63;13.00;;;;;;;4.91;61.49;96144.06;5028918;28;20167;-76
2022/03/18 02:57:27;;;;;;;13.10;11.50;;;;;;;5.11;60.79;96143.31;5046534;28;20198;-76
2022/03/18 02:59:52;;;;;;;14.20;12.77;;;;;;;4.58;62.00;96148.38;5049561;28;20175;-76
2022/03/18 03:03:12;;;;;;;18.87;13.20;;;;;;;4.92;61.64;96154.34;5051582;28;20178;-76
2022/03/18 03:08:21;;;;;;;14.40;12.80;;;;;;;4.32;63.07;96153.81;5046419;28;20186;-77
2022/03/18 03:10:46;;;;;;;16.47;13.40;;;;;;;4.13;63.35;96158.75;5049373;28;20231;-76
2022/03/18 03:13:12;;;;;;;15.83;14.13;;;;;;;4.48;62.05;96163.84;5046631;28;20187;-76
2022/03/18 03:15:38;;;;;;;16.70;13.83;;;;;;;4.66;61.27;96146.00;5046934;28;20175;-77
2022/03/18 03:18:07;;;;;;;15.70;13.47;;;;;;;4.54;62.10;96153.00;5055279;28;20190;-76
2022/03/18 03:20:33;;;;;;;16.20;13.95;;;;;;;4.53;62.20;96155.69;5054098;28;20525;-77
2022/03/18 03:22:58;;;;;;;16.37;14.73;;;;;;;4.43;61.95;96161.59;5046292;28;20182;-77
2022/03/18 03:25:24;;;;;;;17.37;14.73;;;;;;;4.31;62.31;96165.13;5046646;28;20183;-76
2022/03/18 03:27:54;;;;;;;17.57;15.67;;;;;;;4.04;63.41;96163.69;5028763;28;20215;-76
2022/03/18 03:30:21;;;;;;;18.23;13.80;;;;;;;4.23;62.89;96170.06;5046427;28;20220;-76
2022/03/18 03:32:46;;;;;;;17.83;14.27;;;;;;;3.74;63.91;96176.34;5046993;28;20428;-76
2022/03/18 03:35:12;;;;;;;16.33;13.97;;;;;;;4.40;62.37;96177.38;5035608;28;20179;-76
2022/03/18 03:37:38;;;;;;;19.90;15.85;;;;;;;4.25;61.95;96181.13;5046238;28;20645;-76
2022/03/18 03:40:04;;;;;;;16.30;9.50;;;;;;;4.25;62.30;96175.94;5046362;28;20175;-75
2022/03/18 03:42:30;;;;;;;14.85;13.27;;;;;;;4.16;62.67;96185.25;5046206;28;20253;-75
2022/03/18 03:44:56;;;;;;;16.10;14.00;;;;;;;4.14;62.40;96183.75;5022330;28;20286;-76
2022/03/18 03:47:22;;;;;;;20.88;16.45;;;;;;;4.45;61.80;96187.38;5043102;28;20594;-76
2022/03/18 03:49:53;;;;;;;19.50;15.37;;;;;;;4.52;60.77;96191.16;5046217;28;20231;-76
2022/03/18 03:52:18;;;;;;;24.15;16.50;;;;;;;4.46;61.29;96192.47;5046121;28;20190;-76
2022/03/18 03:54:44;;;;;;;17.70;14.73;;;;;;;4.45;61.85;96193.38;5065807;28;20201;-76
2022/03/18 03:57:09;;;;;;;19.53;15.97;;;;;;;4.41;61.54;96189.38;5032148;28;20638;-76
2022/03/18 03:59:35;;;;;;;23.77;14.70;;;;;;;4.46;61.82;96195.06;5046200;28;20183;-77
2022/03/18 04:02:02;;;;;;;15.97;14.37;;;;;;;4.37;61.46;96198.34;5046266;28;20226;-77
2022/03/18 04:04:28;;;;;;;20.88;16.75;;;;;;;4.55;60.22;96203.88;5046033;28;20453;-76
2022/03/18 04:06:54;;;;;;;15.17;13.47;;;;;;;4.47;60.92;96203.66;5045855;28;20191;-76
2022/03/18 04:09:20;;;;;;;21.40;14.40;;;;;;;4.59;60.22;96210.50;5027954;28;20470;-76
2022/03/18 04:11:46;;;;;;;17.20;14.77;;;;;;;4.36;60.73;96207.03;5045653;28;20416;-76
2022/03/18 04:14:12;;;;;;;16.97;14.80;;;;;;;5.01;59.01;96217.66;5023218;28;20477;-76
2022/03/18 04:16:37;;;;;;;17.00;14.23;;;;;;;4.46;60.27;96215.78;5027030;28;20185;-76
2022/03/18 04:19:05;;;;;;;23.33;13.73;;;;;;;4.68;59.82;96216.72;5045927;28;20238;-76
2022/03/18 04:21:31;;;;;;;16.20;12.83;;;;;;;4.22;60.99;96225.44;5045831;28;20168;-76
2022/03/18 04:23:56;;;;;;;18.77;14.87;;;;;;;4.24;60.71;96220.94;5044800;28;20437;-76
2022/03/18 04:26:22;;;;;;;15.97;13.63;;;;;;;4.39;60.30;96227.56;5053919;28;20187;-76
2022/03/18 04:28:47;;;;;;;20.33;13.70;;;;;;;4.58;59.41;96226.97;5036334;28;20187;-76
2022/03/18 04:31:13;;;;;;;14.60;12.53;;;;;;;4.54;59.87;96228.16;5054703;28;20277;-76
2022/03/18 04:33:38;;;;;;;16.10;14.40;;;;;;;4.16;61.12;96225.91;5045915;28;20198;-76
2022/03/18 04:36:04;;;;;;;17.93;15.37;;;;;;;4.13;61.38;96231.28;5036047;28;20182;-76
2022/03/18 04:38:30;;;;;;;16.43;12.27;;;;;;;4.56;59.89;96228.06;5051100;28;20176;-76
2022/03/18 04:40:55;;;;;;;17.27;14.97;;;;;;;3.84;61.21;96221.34;5045317;28;20425;-75
2022/03/18 04:43:21;;;;;;;20.50;15.67;;;;;;;4.04;61.59;96222.44;5029147;28;20182;-76
2022/03/18 04:45:46;;;;;;;16.20;14.47;;;;;;;4.03;61.31;96226.78;5049267;28;20186;-76
2022/03/18 04:48:12;;;;;;;15.80;13.33;;;;;;;4.28;59.91;96233.53;5049172;28;20179;-76
2022/03/18 04:50:37;;;;;;;14.47;12.90;;;;;;;3.68;61.59;96227.66;5031302;28;20205;-76
2022/03/18 04:53:03;;;;;;;16.50;13.73;;;;;;;4.30;59.92;96233.44;5054979;28;20202;-76
2022/03/18 04:55:28;;;;;;;15.27;10.90;;;;;;;3.65;61.20;96235.63;5057355;28;20176;-76
2022/03/18 04:57:54;;;;;;;21.73;13.27;;;;;;;3.88;61.11;96238.28;5048658;28;20254;-76
2022/03/18 05:00:24;;;;;;;17.60;14.87;;;;;;;4.01;60.38;96239.03;5051453;28;20186;-76
2022/03/18 05:02:50;;;;;;;16.00;13.63;;;;;;;4.07;59.78;96246.34;5069647;28;20205;-77
2022/03/18 05:05:19;;;;;;;14.37;12.30;;;;;;;4.26;59.08;96239.78;5053302;28;20433;-77
2022/03/18 05:07:48;;;;;;;14.10;10.80;;;;;;;4.36;58.64;96251.09;5057912;28;20432;-76
2022/03/18 05:10:14;;;;;;;17.83;12.30;;;;;;;4.29;58.85;96249.94;5068630;28;20460;-77
2022/03/18 05:12:40;;;;;;;14.83;11.63;;;;;;;4.15;58.44;96245.78;5050288;28;20440;-77
2022/03/18 05:15:06;;;;;;;12.37;11.03;;;;;;;4.29;57.77;96253.34;5051356;28;20170;-77
2022/03/18 05:17:32;;;;;;;13.50;11.43;;;;;;;4.09;59.02;96257.41;5036473;28;20171;-76
2022/03/18 05:19:57;;;;;;;15.13;11.30;;;;;;;4.03;59.28;96252.69;5048682;28;20182;-76
2022/03/18 05:22:23;;;;;;;14.53;10.37;;;;;;;4.21;57.67;96252.25;5030782;28;20175;-77
2022/03/18 05:24:48;;;;;;;15.70;12.63;;;;;;;4.55;57.34;96260.09;5048457;28;20175;-76
2022/03/18 05:27:13;;;;;;;13.90;12.40;;;;;;;4.31;58.30;96258.41;5047787;28;20193;-77
2022/03/18 05:29:39;;;;;;;11.83;10.73;;;;;;;4.48;57.32;96257.16;5054434;28;20207;-76
2022/03/18 05:32:05;;;;;;;12.90;11.50;;;;;;;4.25;58.26;96256.28;5065942;28;20174;-76
2022/03/18 05:34:32;;;;;;;12.20;9.10;;;;;;;4.47;57.55;96264.06;5064552;28;20202;-76
2022/03/18 05:36:57;;;;;;;9.60;8.70;;;;;;;4.19;57.18;96249.81;5043574;28;20421;-76
2022/03/18 05:39:23;;;;;;;13.97;11.33;;;;;;;4.12;57.64;96248.59;5051043;28;20475;-76
2022/03/18 05:41:48;;;;;;;11.60;10.40;;;;;;;4.62;56.53;96256.09;5068510;28;20155;-76
2022/03/18 05:44:14;;;;;;;14.73;12.50;;;;;;;4.36;56.48;96251.09;5066805;28;20163;-76
2022/03/18 05:46:39;;;;;;;15.20;11.80;;;;;;;4.71;55.89;96258.00;5030989;28;20179;-77
2022/03/18 05:49:05;;;;;;;14.33;10.27;;;;;;;4.75;55.08;96258.56;5048344;28;20167;-76
2022/03/18 05:51:31;;;;;;;12.00;10.83;;;;;;;4.55;55.77;96273.88;5030732;28;20176;-77
2022/03/18 05:53:56;;;;;;;11.00;9.90;;;;;;;4.64;55.78;96273.16;5049299;28;20190;-77
2022/03/18 05:59:08;;;;;;;14.40;12.27;;;;;;;4.79;55.36;96272.97;5067023;28;20184;-77
2022/03/18 06:01:40;;;;;;;12.27;10.57;;;;;;;4.54;55.89;96274.00;5048174;28;20231;-78
2022/03/18 06:04:06;;;;;;;11.93;10.70;;;;;;;4.52;55.99;96279.31;5062055;28;20422;-77
2022/03/18 06:06:38;;;;;;;13.73;10.80;;;;;;;4.38;56.03;96276.91;5047879;28;20410;-77
2022/03/18 06:11:49;;;;;;;14.67;12.90;;;;;;;4.62;55.37;96295.81;5048333;28;20817;-77
2022/03/18 06:14:19;;;;;;;13.10;11.23;;;;;;;4.64;55.01;96288.72;5036216;28;20472;-77
2022/03/18 06:17:02;;;;;;;9.83;8.80;;;;;;;4.50;55.05;96297.56;5051668;28;20214;-77
2022/03/18 06:19:29;;;;;;;8.53;7.73;;;;;;;4.87;54.35;96305.13;5049333;28;20428;-77
2022/03/18 06:21:55;;;;;;;15.70;9.63;;;;;;;4.84;53.73;96302.78;5067320;28;20409;-77
2022/03/18 06:24:22;;;;;;;12.37;11.13;;;;;;;3.30;56.49;96315.78;5057773;28;20446;-77
2022/03/18 06:26:48;;;;;;;9.50;8.70;;;;;;;4.46;54.77;96313.47;5047207;28;20433;-77
2022/03/18 06:29:13;;;;;;;10.90;8.60;;;;;;;4.39;53.35;96320.88;5030314;28;20411;-77
2022/03/18 06:31:39;;;;;;;11.17;8.63;;;;;;;4.25;53.41;96316.72;5047038;28;20473;-77
2022/03/18 06:34:05;;;;;;;13.90;9.40;;;;;;;4.97;51.71;96327.75;5046713;28;20275;-77
2022/03/18 06:36:31;;;;;;;10.17;7.30;;;;;;;5.03;51.64;96329.91;5047020;28;20567;-77
2022/03/18 06:38:56;;;;;;;12.70;8.90;;;;;;;4.94;50.75;96341.81;5051821;28;20421;-77
2022/03/18 06:41:22;;;;;;;10.23;8.33;;;;;;;4.93;50.41;96339.31;5066454;28;20447;-77
2022/03/18 06:43:49;;;;;;;9.07;8.07;;;;;;;5.05;50.12;96347.00;5063965;28;20175;-77
2022/03/18 06:46:15;;;;;;;11.30;8.60;;;;;;;5.00;50.79;96343.09;5056140;28;20432;-77
2022/03/18 06:48:42;;;;;;;8.27;7.47;;;;;;;4.50;51.17;96338.22;5035867;28;20453;-76
2022/03/18 06:51:07;;;;;;;8.03;6.57;;;;;;;4.82;50.00;96348.75;5054060;28;20414;-77
2022/03/18 06:53:33;;;;;;;20.33;8.50;;;;;;;4.87;50.24;96351.00;5046283;28;20512;-77
2022/03/18 06:55:58;;;;;;;14.80;7.70;;;;;;;4.98;49.36;96352.78;5053687;28;20163;-77
2022/03/18 06:58:24;;;;;;;14.67;7.07;;;;;;;4.38;50.24;96354.66;5052544;28;20616;-77
2022/03/18 07:00:49;;;;;;;14.10;7.87;;;;;;;4.41;49.97;96355.25;5042702;28;20207;-77
2022/03/18 07:03:16;;;;;;;13.70;9.73;;;;;;;5.21;48.53;96364.81;5046513;28;20614;-76
2022/03/18 07:05:41;;;;;;;10.77;8.53;;;;;;;5.33;49.65;96357.88;5059518;28;20178;-77
2022/03/18 07:08:07;;;;;;;9.77;8.70;;;;;;;4.60;51.45;96359.91;5065567;28;20444;-77
2022/03/18 07:10:32;;;;;;;18.57;9.67;;;;;;;5.02;50.57;96362.78;5041746;28;20216;-77
2022/03/18 07:12:58;;;;;;;12.80;10.27;;;;;;;4.99;50.13;96369.97;5042023;28;20631;-77
2022/03/18 07:15:23;;;;;;;11.70;9.40;;;;;;;4.54;50.67;96367.34;5045001;28;20644;-77
2022/03/18 07:17:55;;;;;;;8.73;6.90;;;;;;;4.85;50.84;96376.22;5059034;28;20210;-77
2022/03/18 07:20:24;;;;;;;8.43;7.63;;;;;;;4.69;50.73;96364.41;5037840;28;20187;-77
2022/03/18 07:23:11;;;;;;;11.00;8.80;;;;;;;4.92;51.06;96371.41;5053466;28;20425;-77
2022/03/18 07:25:39;;;;;;;10.47;8.83;;;;;;;4.69;51.37;96373.97;5033462;28;20434;-77
2022/03/18 07:28:08;;;;;;;5.60;5.17;;;;;;;4.72;50.53;96368.53;5044477;28;20433;-77
2022/03/18 07:30:34;;;;;;;8.00;7.13;;;;;;;4.94;49.58;96378.13;5053515;28;20433;-77
2022/03/18 07:33:03;;;;;;;9.53;8.37;;;;;;;4.87;49.86;96379.53;5065478;28;20457;-77
2022/03/18 07:35:28;;;;;;;6.57;5.97;;;;;;;5.24;48.12;96384.53;5042199;28;20202;-78
2022/03/18 07:37:54;;;;;;;11.33;7.70;;;;;;;5.44;48.18;96390.75;5068845;28;20420;-77
2022/03/18 07:40:19;;;;;;;7.17;6.47;;;;;;;5.58;47.47;96393.13;5060986;28;20178;-77
2022/03/18 07:43:05;;;;;;;11.37;7.20;;;;;;;5.79;46.72;96388.00;5056036;28;20186;-78
2022/03/18 07:45:34;;;;;;;11.43;6.90;;;;;;;5.87;46.01;96395.19;5033378;28;20202;-77
2022/03/18 07:48:02;;;;;;;10.87;7.90;;;;;;;5.80;45.89;96392.25;5044483;28;20414;-77
2022/03/18 07:50:30;;;;;;;7.73;6.97;;;;;;;5.52;45.78;96401.41;5048064;28;20426;-77
2022/03/18 07:53:07;;;;;;;7.43;6.60;;;;;;;5.54;44.24;96394.31;5045727;28;20414;-77
2022/03/18 07:55:34;;;;;;;9.07;7.17;;;;;;;5.71;43.46;96393.00;5045777;28;20460;-77
2022/03/18 07:58:00;;;;;;;11.10;7.20;;;;;;;5.41;44.40;96401.41;5045803;28;20438;-77
2022/03/18 08:00:26;;;;;;;13.57;6.57;;;;;;;5.27;43.75;96400.69;5045401;28;20422;-77
2022/03/18 08:02:53;;;;;;;8.80;8.10;;;;;;;5.75;43.57;96399.59;5056675;28;20534;-77
2022/03/18 08:05:19;;;;;;;7.67;6.97;;;;;;;5.88;42.89;96402.06;5032847;28;20421;-77
2022/03/18 08:07:46;;;;;;;7.70;6.87;;;;;;;6.31;42.56;96400.41;5065451;28;20410;-77
2022/03/18 08:10:13;;;;;;;6.23;5.67;;;;;;;5.62;42.20;96404.91;5058479;28;20464;-77
2022/03/18 08:12:40;;;;;;;7.50;4.63;;;;;;;5.99;40.81;96404.63;5066204;28;20405;-77
2022/03/18 08:15:09;;;;;;;5.23;4.90;;;;;;;6.30;39.81;96399.59;5056011;28;20437;-77
2022/03/18 08:17:41;;;;;;;8.20;6.00;;;;;;;5.82;40.71;96405.97;5029167;28;20418;-77
2022/03/18 08:20:08;;;;;;;8.10;6.13;;;;;;;6.02;40.16;96411.38;5040626;28;20508;-77
2022/03/18 08:22:35;;;;;;;7.20;6.30;;;;;;;6.60;40.63;96396.28;5069830;28;20405;-78
2022/03/18 08:25:01;;;;;;;8.50;6.30;;;;;;;6.58;40.57;96394.72;5057934;28;20512;-78
2022/03/18 08:27:26;;;;;;;7.57;6.80;;;;;;;6.24;40.19;96389.69;5041309;28;20437;-78
2022/03/18 08:29:57;;;;;;;6.03;4.37;;;;;;;6.95;39.26;96394.31;5055503;28;20424;-78
2022/03/18 08:32:28;;;;;;;11.30;7.77;;;;;;;7.33;38.92;96387.66;5057415;28;20171;-78
2022/03/18 08:34:54;;;;;;;8.23;7.13;;;;;;;6.48;37.87;96393.84;5058915;28;20464;-78
2022/03/18 08:37:56;;;;;;;6.50;4.87;;;;;;;6.55;37.76;96390.63;5055768;28;20425;-78
2022/03/18 08:40:06;;;;;;;6.70;6.10;;;;;;;6.75;36.38;96394.16;5054769;28;20458;-77
2022/03/18 08:42:32;;;;;;;5.87;5.07;;;;;;;6.99;36.55;96390.50;5031345;28;20414;-77
2022/03/18 08:44:58;;;;;;;7.57;6.43;;;;;;;7.28;36.79;96393.22;5047618;28;20417;-78
2022/03/18 08:47:24;;;;;;;9.47;6.60;;;;;;;7.27;35.52;96382.97;5061348;28;20179;-78
2022/03/18 08:49:50;;;;;;;6.77;6.07;;;;;;;7.57;34.87;96384.69;5054009;28;20443;-78
2022/03/18 08:52:16;;;;;;;7.80;6.17;;;;;;;8.13;33.73;96383.34;5059951;28;20438;-77
2022/03/18 08:54:42;;;;;;;6.17;5.40;;;;;;;8.80;33.17;96384.31;5031197;28;20202;-78
2022/03/18 08:57:08;;;;;;;9.47;5.77;;;;;;;7.88;34.57;96393.31;5069615;28;20420;-77
2022/03/18 08:59:33;;;;;;;7.57;6.77;;;;;;;8.45;33.41;96390.13;5058555;28;20444;-77
2022/03/18 09:01:59;;;;;;;7.20;6.30;;;;;;;8.54;32.98;96378.84;5050287;28;20167;-76
2022/03/18 09:04:24;;;;;;;9.67;7.17;;;;;;;7.77;34.42;96375.16;5052201;28;20174;-77
2022/03/18 09:06:50;;;;;;;6.30;5.67;;;;;;;7.73;34.25;96389.44;5070267;28;20195;-77
2022/03/18 09:09:15;;;;;;;9.00;7.27;;;;;;;8.26;33.85;96373.47;5068317;28;20739;-77
2022/03/18 09:11:41;;;;;;;6.30;5.70;;;;;;;8.05;34.09;96383.19;5065392;28;20187;-77
2022/03/18 09:14:07;;;;;;;12.03;8.40;;;;;;;8.56;33.24;96387.38;5043722;28;20203;-77
2022/03/18 09:16:36;;;;;;;6.00;5.00;;;;;;;8.33;33.32;96384.19;5050281;28;20411;-77
2022/03/18 09:19:02;;;;;;;6.33;5.70;;;;;;;8.45;32.72;96385.72;5051221;28;20528;-77
2022/03/18 09:21:28;;;;;;;7.20;6.53;;;;;;;8.04;33.30;96386.75;5066662;28;20410;-78
2022/03/18 09:23:53;;;;;;;4.63;4.27;;;;;;;8.60;32.67;96389.56;5034886;28;20801;-77
2022/03/18 09:26:19;;;;;;;7.20;5.90;;;;;;;9.28;32.67;96388.59;5042573;28;20171;-76
2022/03/18 09:28:44;;;;;;;8.63;6.10;;;;;;;8.26;33.09;96390.91;5044294;28;20614;-76
2022/03/18 09:31:10;;;;;;;6.57;5.90;;;;;;;7.45;33.63;96394.41;5039190;28;20182;-76
2022/03/18 09:33:36;;;;;;;6.47;5.87;;;;;;;7.69;34.31;96388.88;5043681;28;20696;-75
2022/03/18 09:36:06;;;;;;;9.67;7.10;;;;;;;8.41;34.30;96381.69;5065112;28;20308;-76
2022/03/18 09:38:32;;;;;;;7.90;6.90;;;;;;;8.42;33.99;96385.16;5048200;28;20170;-76
2022/03/18 09:40:57;;;;;;;7.13;6.40;;;;;;;8.49;34.00;96376.66;5035866;28;20461;-76
2022/03/18 09:43:23;;;;;;;8.20;6.67;;;;;;;8.17;35.00;96385.53;5040065;28;20179;-76
2022/03/18 09:45:57;;;;;;;8.27;7.17;;;;;;;8.62;34.10;96368.53;5042962;28;20207;-76
2022/03/18 09:48:25;;;;;;;7.03;6.33;;;;;;;9.61;31.91;96378.56;5030981;28;20247;-75
2022/03/18 09:50:52;;;;;;;7.03;5.47;;;;;;;8.76;32.47;96380.31;5035059;28;20464;-76
2022/03/18 09:53:21;;;;;;;7.43;6.60;;;;;;;8.69;32.91;96377.47;5024305;28;20521;-76
2022/03/18 09:55:49;;;;;;;11.20;5.80;;;;;;;8.59;32.53;96371.41;5040649;28;20431;-76
2022/03/18 09:58:40;;;;;;;7.73;6.50;;;;;;;8.19;33.54;96369.75;5064765;28;20452;-75
2022/03/18 10:01:09;;;;;;;8.80;6.37;;;;;;;8.51;32.53;96384.34;5024202;28;20442;-75
2022/03/18 10:03:39;;;;;;;7.10;6.40;;;;;;;8.43;33.33;96389.44;5053467;28;20418;-75
2022/03/18 10:06:05;;;;;;;9.80;6.80;;;;;;;8.66;32.85;96382.94;5040441;28;20527;-75
2022/03/18 10:08:37;;;;;;;8.23;7.37;;;;;;;8.63;31.94;96380.59;5042438;28;20417;-74
2022/03/18 10:11:23;;;;;;;8.07;7.27;;;;;;;8.62;32.15;96378.97;5052871;28;20433;-76
2022/03/18 10:14:00;;;;;;;7.00;6.30;;;;;;;8.99;31.63;96373.00;5038894;28;20526;-76
2022/03/18 10:17:21;;;;;;;11.63;6.73;;;;;;;10.16;30.42;96383.75;5056888;28;20464;-78
2022/03/18 10:38:59;;;;;;;8.03;6.60;;;;;;;9.52;32.91;96379.41;5027803;28;20528;-77
2022/03/18 10:41:50;;;;;;;8.70;7.80;;;;;;;9.28;34.50;96377.34;5087270;28;20417;-77
2022/03/18 10:44:46;;;;;;;9.80;8.80;;;;;;;9.89;34.42;96370.72;5077240;28;20183;-77
2022/03/18 10:52:14;;;;;;;9.38;5.95;;;;;;;10.04;32.04;96373.66;5053478;28;20476;-77
2022/03/18 10:54:40;;;;;;;7.63;6.90;;;;;;;9.18;31.50;96372.97;5031775;28;20192;-76
2022/03/18 10:57:05;;;;;;;7.40;6.23;;;;;;;9.67;30.68;96377.97;5050804;28;20420;-77
2022/03/18 10:59:31;;;;;;;7.13;6.43;;;;;;;8.29;31.49;96367.13;5046075;28;20175;-77
2022/03/18 11:01:58;;;;;;;8.23;7.00;;;;;;;8.11;32.41;96367.00;5030006;28;20183;-77
2022/03/18 11:04:24;;;;;;;9.07;8.20;;;;;;;8.17;33.93;96369.88;5030458;28;20430;-77
2022/03/18 11:12:31;;;;;;;8.43;7.63;;;;;;;8.52;32.60;96359.91;5048366;28;20498;-77
2022/03/18 11:14:57;;;;;;;11.47;6.83;;;;;;;8.10;32.26;96360.97;5030683;28;20563;-78
2022/03/18 11:17:26;;;;;;;7.80;7.00;;;;;;;8.16;31.77;96359.59;5048254;28;20430;-77
2022/03/18 11:19:59;;;;;;;8.50;6.13;;;;;;;8.43;31.89;96365.94;5048558;28;20437;-78
2022/03/18 11:22:25;;;;;;;6.40;5.80;;;;;;;8.90;31.23;96360.81;5050363;28;20424;-77
2022/03/18 11:24:52;;;;;;;12.47;8.07;;;;;;;9.43;30.63;96365.44;5056212;28;20449;-77
2022/03/18 11:27:18;;;;;;;7.40;6.70;;;;;;;9.33;29.96;96360.28;5038913;28;20430;-77
2022/03/18 11:29:44;;;;;;;7.33;6.63;;;;;;;9.26;29.98;96358.34;5053081;28;20437;-77
2022/03/18 11:32:09;;;;;;;7.60;6.40;;;;;;;10.05;29.25;96354.38;5029800;28;20429;-77
2022/03/18 11:34:59;;;;;;;7.63;6.90;;;;;;;10.02;30.22;96357.28;5031004;28;20227;-76
2022/03/18 11:37:25;;;;;;;12.27;6.20;;;;;;;10.32;29.50;96358.72;5057439;28;20442;-78
2022/03/18 11:39:51;;;;;;;11.40;6.93;;;;;;;10.08;29.83;96335.75;5063850;28;20457;-77
2022/03/18 11:45:34;;;;;;;7.30;6.60;;;;;;;9.81;29.09;96332.22;5061758;28;20451;-78
2022/03/18 11:48:06;;;;;;;6.93;6.23;;;;;;;9.43;29.47;96347.16;5045196;28;20456;-78
2022/03/18 11:50:39;;;;;;;6.73;6.07;;;;;;;9.58;29.72;96348.31;5020649;28;20421;-78
2022/03/18 11:53:06;;;;;;;10.73;7.30;;;;;;;8.68;30.57;96333.22;5035889;28;20430;-77
2022/03/18 11:55:32;;;;;;;8.50;5.73;;;;;;;8.74;31.17;96338.69;5039005;28;20425;-77
2022/03/18 11:57:58;;;;;;;7.30;6.60;;;;;;;8.67;30.86;96335.03;5032784;28;20414;-77
2022/03/18 12:00:32;;;;;;;7.83;6.63;;;;;;;8.79;30.26;96339.09;5036068;28;20183;-77
2022/03/18 12:03:02;;;;;;;6.80;6.20;;;;;;;8.57;31.16;96339.41;5066333;28;20240;-78
2022/03/18 12:05:50;;;;;;;12.30;8.53;;;;;;;7.09;32.43;96347.09;5059459;28;20462;-76
2022/03/18 12:08:16;;;;;;;4.90;4.40;;;;;;;8.00;31.37;96329.66;5044087;28;20433;-76
2022/03/18 12:10:43;;;;;;;12.97;7.40;;;;;;;6.70;34.21;96344.31;5042119;28;20486;-77
2022/03/18 12:13:08;;;;;;;8.53;6.50;;;;;;;7.61;32.39;96345.25;5049394;28;20697;-78
2022/03/18 12:15:39;;;;;;;7.33;5.70;;;;;;;7.50;33.01;96350.56;5054735;28;20538;-77
2022/03/18 12:18:04;;;;;;;7.70;6.40;;;;;;;7.90;32.31;96349.69;5029901;28;20179;-77
2022/03/18 12:20:35;;;;;;;10.73;6.07;;;;;;;8.66;30.45;96343.81;5051069;28;20488;-77